sensor_id;sensor_type;location;lat;lon;timestamp;temperature;humidity
5459;DHT22;2752;49.992;8.422;2023-06-22T00:00:45;23.20;1.00
5459;DHT22;2752;49.992;8.422;2023-06-22T00:03:12;23.20;1.00
5459;DHT22;2752;49.992;8.422;2023-06-22T00:05:39;23.10;1.00
5459;DHT22;2752;49.992;8.422;2023-06-22T00:08:05;23.10;1.00
5459;DHT22;2752;49.992;8.422;2023-06-22T00:10:32;23.10;1.00
5459;DHT22;2752;49.992;8.422;2023-06-22T00:13:00;23.10;1.00
5459;DHT22;2752;49.992;8.422;2023-06-22T00:15:27;23.10;1.00
5459;DHT22;2752;49.992;8.422;2023-06-22T00:17:54;23.00;1.00
5459;DHT22;2752;49.992;8.422;2023-06-22T00:20:22;23.00;1.00
5459;DHT22;2752;49.992;8.422;2023-06-22T00:22:53;22.90;1.00
5459;DHT22;2752;49.992;8.422;2023-06-22T00:25:20;22.90;1.00
5459;DHT22;2752;49.992;8.422;2023-06-22T00:27:46;22.90;1.00
5459;DHT22;2752;49.992;8.422;2023-06-22T00:30:15;22.90;1.00
5459;DHT22;2752;49.992;8.422;2023-06-22T00:32:42;22.90;1.00
5459;DHT22;2752;49.992;8.422;2023-06-22T00:35:09;22.90;1.00
5459;DHT22;2752;49.992;8.422;2023-06-22T00:37:36;23.00;1.00
5459;DHT22;2752;49.992;8.422;2023-06-22T00:40:04;23.00;1.00
5459;DHT22;2752;49.992;8.422;2023-06-22T00:42:31;23.00;1.00
5459;DHT22;2752;49.992;8.422;2023-06-22T00:44:58;23.00;1.00
5459;DHT22;2752;49.992;8.422;2023-06-22T00:47:26;23.00;1.00
5459;DHT22;2752;49.992;8.422;2023-06-22T00:49:53;23.00;1.00
5459;DHT22;2752;49.992;8.422;2023-06-22T00:52:22;23.00;1.00
5459;DHT22;2752;49.992;8.422;2023-06-22T00:54:53;23.10;1.00
5459;DHT22;2752;49.992;8.422;2023-06-22T00:57:21;23.30;1.00
5459;DHT22;2752;49.992;8.422;2023-06-22T00:59:48;23.30;1.00
5459;DHT22;2752;49.992;8.422;2023-06-22T01:02:15;23.60;1.00
5459;DHT22;2752;49.992;8.422;2023-06-22T01:04:43;23.60;1.00
5459;DHT22;2752;49.992;8.422;2023-06-22T01:07:16;23.60;1.00
5459;DHT22;2752;49.992;8.422;2023-06-22T01:09:48;23.50;1.00
5459;DHT22;2752;49.992;8.422;2023-06-22T01:12:17;23.40;1.00
5459;DHT22;2752;49.992;8.422;2023-06-22T01:14:49;23.30;1.00
5459;DHT22;2752;49.992;8.422;2023-06-22T01:17:19;23.10;1.00
5459;DHT22;2752;49.992;8.422;2023-06-22T01:19:49;23.10;1.00
5459;DHT22;2752;49.992;8.422;2023-06-22T01:22:21;22.80;2.20
5459;DHT22;2752;49.992;8.422;2023-06-22T01:24:57;22.60;7.90
5459;DHT22;2752;49.992;8.422;2023-06-22T01:27:33;22.40;12.00
5459;DHT22;2752;49.992;8.422;2023-06-22T01:30:05;22.40;13.10
5459;DHT22;2752;49.992;8.422;2023-06-22T01:32:34;22.40;14.70
5459;DHT22;2752;49.992;8.422;2023-06-22T01:35:04;22.30;16.60
5459;DHT22;2752;49.992;8.422;2023-06-22T01:37:33;22.20;20.00
5459;DHT22;2752;49.992;8.422;2023-06-22T01:40:01;22.00;20.00
5459;DHT22;2752;49.992;8.422;2023-06-22T01:42:30;22.00;20.00
5459;DHT22;2752;49.992;8.422;2023-06-22T01:44:58;21.90;20.00
5459;DHT22;2752;49.992;8.422;2023-06-22T01:47:27;21.80;22.50
5459;DHT22;2752;49.992;8.422;2023-06-22T01:49:54;22.00;25.00
5459;DHT22;2752;49.992;8.422;2023-06-22T01:52:21;21.90;20.00
5459;DHT22;2752;49.992;8.422;2023-06-22T01:54:48;21.80;23.40
5459;DHT22;2752;49.992;8.422;2023-06-22T01:57:15;21.80;28.70
5459;DHT22;2752;49.992;8.422;2023-06-22T01:59:48;21.80;32.10
5459;DHT22;2752;49.992;8.422;2023-06-22T02:02:19;21.80;34.50
5459;DHT22;2752;49.992;8.422;2023-06-22T02:04:57;21.70;32.90
5459;DHT22;2752;49.992;8.422;2023-06-22T02:07:28;21.70;35.30
5459;DHT22;2752;49.992;8.422;2023-06-22T02:09:58;21.70;37.00
5459;DHT22;2752;49.992;8.422;2023-06-22T02:12:26;21.70;38.30
5459;DHT22;2752;49.992;8.422;2023-06-22T02:14:54;21.70;38.50
5459;DHT22;2752;49.992;8.422;2023-06-22T02:17:21;21.70;38.50
5459;DHT22;2752;49.992;8.422;2023-06-22T02:19:48;21.60;38.40
5459;DHT22;2752;49.992;8.422;2023-06-22T02:22:16;21.60;36.70
5459;DHT22;2752;49.992;8.422;2023-06-22T02:24:42;21.50;34.50
5459;DHT22;2752;49.992;8.422;2023-06-22T02:27:09;21.50;34.50
5459;DHT22;2752;49.992;8.422;2023-06-22T02:29:36;21.60;32.70
5459;DHT22;2752;49.992;8.422;2023-06-22T02:32:03;21.60;28.90
5459;DHT22;2752;49.992;8.422;2023-06-22T02:34:31;21.60;29.70
5459;DHT22;2752;49.992;8.422;2023-06-22T02:36:59;21.60;30.80
5459;DHT22;2752;49.992;8.422;2023-06-22T02:39:29;21.60;29.30
5459;DHT22;2752;49.992;8.422;2023-06-22T02:41:56;21.60;29.10
5459;DHT22;2752;49.992;8.422;2023-06-22T02:44:22;21.60;29.40
5459;DHT22;2752;49.992;8.422;2023-06-22T02:46:49;21.60;29.90
5459;DHT22;2752;49.992;8.422;2023-06-22T02:49:16;21.60;27.40
5459;DHT22;2752;49.992;8.422;2023-06-22T02:51:45;21.60;28.60
5459;DHT22;2752;49.992;8.422;2023-06-22T02:54:12;21.50;30.60
5459;DHT22;2752;49.992;8.422;2023-06-22T02:56:40;21.50;32.60
5459;DHT22;2752;49.992;8.422;2023-06-22T02:59:09;21.40;33.40
5459;DHT22;2752;49.992;8.422;2023-06-22T03:01:37;21.50;34.50
5459;DHT22;2752;49.992;8.422;2023-06-22T03:04:05;21.40;36.00
5459;DHT22;2752;49.992;8.422;2023-06-22T03:06:32;21.50;35.60
5459;DHT22;2752;49.992;8.422;2023-06-22T03:09:00;21.50;36.00
5459;DHT22;2752;49.992;8.422;2023-06-22T03:11:29;21.40;37.10
5459;DHT22;2752;49.992;8.422;2023-06-22T03:13:57;21.40;38.70
5459;DHT22;2752;49.992;8.422;2023-06-22T03:16:24;21.30;38.70
5459;DHT22;2752;49.992;8.422;2023-06-22T03:18:50;21.30;42.00
5459;DHT22;2752;49.992;8.422;2023-06-22T03:21:18;21.30;43.70
5459;DHT22;2752;49.992;8.422;2023-06-22T03:23:45;21.40;42.50
5459;DHT22;2752;49.992;8.422;2023-06-22T03:26:12;21.30;43.40
5459;DHT22;2752;49.992;8.422;2023-06-22T03:28:38;21.30;42.30
5459;DHT22;2752;49.992;8.422;2023-06-22T03:31:06;21.30;44.60
5459;DHT22;2752;49.992;8.422;2023-06-22T03:33:33;21.30;41.40
5459;DHT22;2752;49.992;8.422;2023-06-22T03:36:00;21.30;36.90
5459;DHT22;2752;49.992;8.422;2023-06-22T03:38:27;21.20;34.50
5459;DHT22;2752;49.992;8.422;2023-06-22T03:40:53;21.20;33.90
5459;DHT22;2752;49.992;8.422;2023-06-22T03:43:20;21.20;32.60
5459;DHT22;2752;49.992;8.422;2023-06-22T03:45:46;21.20;32.60
5459;DHT22;2752;49.992;8.422;2023-06-22T03:48:15;21.20;33.70
5459;DHT22;2752;49.992;8.422;2023-06-22T03:50:41;21.20;35.10
5459;DHT22;2752;49.992;8.422;2023-06-22T03:53:09;21.20;34.30
5459;DHT22;2752;49.992;8.422;2023-06-22T03:55:36;21.20;34.30
5459;DHT22;2752;49.992;8.422;2023-06-22T03:58:02;21.20;32.80
5459;DHT22;2752;49.992;8.422;2023-06-22T04:00:31;21.20;30.20
5459;DHT22;2752;49.992;8.422;2023-06-22T04:02:58;21.20;29.80
5459;DHT22;2752;49.992;8.422;2023-06-22T04:05:26;21.20;30.80
5459;DHT22;2752;49.992;8.422;2023-06-22T04:07:52;21.20;30.90
5459;DHT22;2752;49.992;8.422;2023-06-22T04:10:19;21.10;32.70
5459;DHT22;2752;49.992;8.422;2023-06-22T04:12:45;21.20;32.30
5459;DHT22;2752;49.992;8.422;2023-06-22T04:15:12;21.20;32.00
5459;DHT22;2752;49.992;8.422;2023-06-22T04:17:39;21.20;31.70
5459;DHT22;2752;49.992;8.422;2023-06-22T04:20:07;21.20;31.40
5459;DHT22;2752;49.992;8.422;2023-06-22T04:22:35;21.20;31.30
5459;DHT22;2752;49.992;8.422;2023-06-22T04:25:02;21.20;31.00
5459;DHT22;2752;49.992;8.422;2023-06-22T04:27:29;21.30;29.40
5459;DHT22;2752;49.992;8.422;2023-06-22T04:29:55;21.20;29.30
5459;DHT22;2752;49.992;8.422;2023-06-22T04:32:25;21.30;30.30
5459;DHT22;2752;49.992;8.422;2023-06-22T04:34:52;21.30;30.70
5459;DHT22;2752;49.992;8.422;2023-06-22T04:37:19;21.30;31.60
5459;DHT22;2752;49.992;8.422;2023-06-22T04:39:50;21.30;34.40
5459;DHT22;2752;49.992;8.422;2023-06-22T04:42:27;21.40;36.70
5459;DHT22;2752;49.992;8.422;2023-06-22T04:44:56;21.40;39.50
5459;DHT22;2752;49.992;8.422;2023-06-22T04:47:23;21.40;41.30
5459;DHT22;2752;49.992;8.422;2023-06-22T04:49:52;21.40;41.70
5459;DHT22;2752;49.992;8.422;2023-06-22T04:52:19;21.30;41.40
5459;DHT22;2752;49.992;8.422;2023-06-22T04:54:45;21.30;43.40
5459;DHT22;2752;49.992;8.422;2023-06-22T04:57:15;21.30;43.90
5459;DHT22;2752;49.992;8.422;2023-06-22T04:59:42;21.30;45.30
5459;DHT22;2752;49.992;8.422;2023-06-22T05:02:10;21.30;44.00
5459;DHT22;2752;49.992;8.422;2023-06-22T05:04:36;21.20;45.50
5459;DHT22;2752;49.992;8.422;2023-06-22T05:07:04;21.20;47.60
5459;DHT22;2752;49.992;8.422;2023-06-22T05:09:31;21.20;47.30
5459;DHT22;2752;49.992;8.422;2023-06-22T05:11:59;21.20;49.30
5459;DHT22;2752;49.992;8.422;2023-06-22T05:14:29;21.30;48.10
5459;DHT22;2752;49.992;8.422;2023-06-22T05:16:56;21.40;44.30
5459;DHT22;2752;49.992;8.422;2023-06-22T05:19:24;21.30;43.30
5459;DHT22;2752;49.992;8.422;2023-06-22T05:21:56;21.40;43.20
5459;DHT22;2752;49.992;8.422;2023-06-22T05:24:23;21.50;41.50
5459;DHT22;2752;49.992;8.422;2023-06-22T05:26:50;21.60;42.20
5459;DHT22;2752;49.992;8.422;2023-06-22T05:29:16;21.70;37.30
5459;DHT22;2752;49.992;8.422;2023-06-22T05:31:44;21.70;34.40
5459;DHT22;2752;49.992;8.422;2023-06-22T05:34:11;21.80;29.90
5459;DHT22;2752;49.992;8.422;2023-06-22T05:36:38;22.00;24.70
5459;DHT22;2752;49.992;8.422;2023-06-22T05:39:13;22.10;21.60
5459;DHT22;2752;49.992;8.422;2023-06-22T05:41:44;22.20;19.90
5459;DHT22;2752;49.992;8.422;2023-06-22T05:44:11;22.30;15.70
5459;DHT22;2752;49.992;8.422;2023-06-22T05:46:40;22.50;12.30
5459;DHT22;2752;49.992;8.422;2023-06-22T05:49:13;22.60;9.90
5459;DHT22;2752;49.992;8.422;2023-06-22T05:51:41;22.70;7.10
5459;DHT22;2752;49.992;8.422;2023-06-22T05:54:08;22.70;7.20
5459;DHT22;2752;49.992;8.422;2023-06-22T05:56:35;22.70;6.10
5459;DHT22;2752;49.992;8.422;2023-06-22T05:59:02;23.00;3.90
5459;DHT22;2752;49.992;8.422;2023-06-22T06:01:28;22.90;3.90
5459;DHT22;2752;49.992;8.422;2023-06-22T06:03:56;23.00;2.60
5459;DHT22;2752;49.992;8.422;2023-06-22T06:06:24;23.20;1.70
5459;DHT22;2752;49.992;8.422;2023-06-22T06:08:53;23.40;1.00
5459;DHT22;2752;49.992;8.422;2023-06-22T06:11:21;23.50;1.00
5459;DHT22;2752;49.992;8.422;2023-06-22T06:13:47;23.50;1.00
5459;DHT22;2752;49.992;8.422;2023-06-22T06:16:14;23.70;1.00
5459;DHT22;2752;49.992;8.422;2023-06-22T06:18:41;23.80;1.00
5459;DHT22;2752;49.992;8.422;2023-06-22T06:21:07;23.80;1.00
5459;DHT22;2752;49.992;8.422;2023-06-22T06:23:35;23.90;1.00
5459;DHT22;2752;49.992;8.422;2023-06-22T06:26:02;24.00;1.00
5459;DHT22;2752;49.992;8.422;2023-06-22T06:28:32;24.20;1.00
5459;DHT22;2752;49.992;8.422;2023-06-22T06:30:59;24.20;1.00
5459;DHT22;2752;49.992;8.422;2023-06-22T06:33:26;24.40;1.00
5459;DHT22;2752;49.992;8.422;2023-06-22T06:35:52;24.50;1.00
5459;DHT22;2752;49.992;8.422;2023-06-22T06:38:21;24.40;1.00
5459;DHT22;2752;49.992;8.422;2023-06-22T06:40:49;24.40;1.00
5459;DHT22;2752;49.992;8.422;2023-06-22T06:43:16;24.40;1.00
5459;DHT22;2752;49.992;8.422;2023-06-22T06:45:42;24.40;1.00
5459;DHT22;2752;49.992;8.422;2023-06-22T06:48:09;24.50;1.00
5459;DHT22;2752;49.992;8.422;2023-06-22T06:50:36;24.40;1.00
5459;DHT22;2752;49.992;8.422;2023-06-22T06:53:02;24.50;1.00
5459;DHT22;2752;49.992;8.422;2023-06-22T06:55:29;24.70;1.00
5459;DHT22;2752;49.992;8.422;2023-06-22T06:57:59;24.80;1.00
5459;DHT22;2752;49.992;8.422;2023-06-22T07:00:26;24.80;1.00
5459;DHT22;2752;49.992;8.422;2023-06-22T07:02:53;24.90;1.00
5459;DHT22;2752;49.992;8.422;2023-06-22T07:05:19;25.00;1.00
5459;DHT22;2752;49.992;8.422;2023-06-22T07:07:46;24.90;1.00
5459;DHT22;2752;49.992;8.422;2023-06-22T07:10:13;24.80;1.00
5459;DHT22;2752;49.992;8.422;2023-06-22T07:12:40;24.80;1.00
5459;DHT22;2752;49.992;8.422;2023-06-22T07:15:09;24.90;1.00
5459;DHT22;2752;49.992;8.422;2023-06-22T07:17:38;25.00;1.00
5459;DHT22;2752;49.992;8.422;2023-06-22T07:20:07;25.10;1.00
5459;DHT22;2752;49.992;8.422;2023-06-22T07:22:35;25.30;1.00
5459;DHT22;2752;49.992;8.422;2023-06-22T07:25:02;25.50;1.00
5459;DHT22;2752;49.992;8.422;2023-06-22T07:27:34;25.50;1.00
5459;DHT22;2752;49.992;8.422;2023-06-22T07:30:03;25.50;1.00
5459;DHT22;2752;49.992;8.422;2023-06-22T07:32:32;25.70;1.00
5459;DHT22;2752;49.992;8.422;2023-06-22T07:34:59;25.80;1.00
5459;DHT22;2752;49.992;8.422;2023-06-22T07:37:27;26.00;1.00
5459;DHT22;2752;49.992;8.422;2023-06-22T07:39:54;25.80;1.00
5459;DHT22;2752;49.992;8.422;2023-06-22T07:42:24;25.80;1.00
5459;DHT22;2752;49.992;8.422;2023-06-22T07:44:50;25.90;1.00
5459;DHT22;2752;49.992;8.422;2023-06-22T07:47:17;25.90;1.00
5459;DHT22;2752;49.992;8.422;2023-06-22T07:49:46;25.90;1.00
5459;DHT22;2752;49.992;8.422;2023-06-22T07:52:12;26.00;1.00
5459;DHT22;2752;49.992;8.422;2023-06-22T07:54:39;26.30;1.00
5459;DHT22;2752;49.992;8.422;2023-06-22T07:57:06;26.30;1.00
5459;DHT22;2752;49.992;8.422;2023-06-22T07:59:33;26.20;1.00
5459;DHT22;2752;49.992;8.422;2023-06-22T08:01:59;26.30;1.00
5459;DHT22;2752;49.992;8.422;2023-06-22T08:04:26;26.50;1.00
5459;DHT22;2752;49.992;8.422;2023-06-22T08:06:55;26.80;1.00
5459;DHT22;2752;49.992;8.422;2023-06-22T08:09:22;26.90;1.00
5459;DHT22;2752;49.992;8.422;2023-06-22T08:11:49;27.00;1.00
5459;DHT22;2752;49.992;8.422;2023-06-22T08:14:15;27.10;1.00
5459;DHT22;2752;49.992;8.422;2023-06-22T08:16:42;27.10;1.00
5459;DHT22;2752;49.992;8.422;2023-06-22T08:19:09;27.20;1.00
5459;DHT22;2752;49.992;8.422;2023-06-22T08:21:35;27.20;1.00
5459;DHT22;2752;49.992;8.422;2023-06-22T08:24:05;27.00;1.00
5459;DHT22;2752;49.992;8.422;2023-06-22T08:26:32;27.10;1.00
5459;DHT22;2752;49.992;8.422;2023-06-22T08:29:02;27.10;1.00
5459;DHT22;2752;49.992;8.422;2023-06-22T08:31:30;27.40;1.00
5459;DHT22;2752;49.992;8.422;2023-06-22T08:33:57;27.60;1.00
5459;DHT22;2752;49.992;8.422;2023-06-22T08:36:24;27.80;1.00
5459;DHT22;2752;49.992;8.422;2023-06-22T08:38:54;27.70;1.00
5459;DHT22;2752;49.992;8.422;2023-06-22T08:41:28;27.80;1.00
5459;DHT22;2752;49.992;8.422;2023-06-22T08:43:54;27.80;1.00
5459;DHT22;2752;49.992;8.422;2023-06-22T08:46:21;27.60;1.00
5459;DHT22;2752;49.992;8.422;2023-06-22T08:48:55;27.60;1.00
5459;DHT22;2752;49.992;8.422;2023-06-22T08:51:22;27.70;1.00
5459;DHT22;2752;49.992;8.422;2023-06-22T08:53:48;28.00;1.00
5459;DHT22;2752;49.992;8.422;2023-06-22T08:56:15;27.90;1.00
5459;DHT22;2752;49.992;8.422;2023-06-22T08:58:43;28.10;1.00
5459;DHT22;2752;49.992;8.422;2023-06-22T09:01:10;28.30;1.00
5459;DHT22;2752;49.992;8.422;2023-06-22T09:03:36;28.50;1.00
5459;DHT22;2752;49.992;8.422;2023-06-22T09:06:03;28.50;1.00
5459;DHT22;2752;49.992;8.422;2023-06-22T09:08:30;28.50;1.00
5459;DHT22;2752;49.992;8.422;2023-06-22T09:10:56;28.40;1.00
5459;DHT22;2752;49.992;8.422;2023-06-22T09:13:23;28.60;1.00
5459;DHT22;2752;49.992;8.422;2023-06-22T09:15:51;28.70;1.00
5459;DHT22;2752;49.992;8.422;2023-06-22T09:18:18;28.80;1.00
5459;DHT22;2752;49.992;8.422;2023-06-22T09:20:45;28.80;1.00
5459;DHT22;2752;49.992;8.422;2023-06-22T09:23:11;29.10;1.00
5459;DHT22;2752;49.992;8.422;2023-06-22T09:25:38;29.20;1.00
5459;DHT22;2752;49.992;8.422;2023-06-22T09:28:05;29.20;1.00
5459;DHT22;2752;49.992;8.422;2023-06-22T09:30:32;29.30;1.00
5459;DHT22;2752;49.992;8.422;2023-06-22T09:33:00;29.50;1.00
5459;DHT22;2752;49.992;8.422;2023-06-22T09:35:27;29.60;1.00
5459;DHT22;2752;49.992;8.422;2023-06-22T09:37:54;29.60;1.00
5459;DHT22;2752;49.992;8.422;2023-06-22T09:40:20;29.70;1.00
5459;DHT22;2752;49.992;8.422;2023-06-22T09:42:47;29.90;1.00
5459;DHT22;2752;49.992;8.422;2023-06-22T09:45:14;30.10;1.00
5459;DHT22;2752;49.992;8.422;2023-06-22T09:47:40;30.30;1.00
5459;DHT22;2752;49.992;8.422;2023-06-22T09:50:09;30.30;1.00
5459;DHT22;2752;49.992;8.422;2023-06-22T09:52:36;30.30;1.00
5459;DHT22;2752;49.992;8.422;2023-06-22T09:55:03;30.00;1.00
5459;DHT22;2752;49.992;8.422;2023-06-22T09:57:30;29.90;1.00
5459;DHT22;2752;49.992;8.422;2023-06-22T09:59:57;30.00;1.00
5459;DHT22;2752;49.992;8.422;2023-06-22T10:02:23;30.10;1.00
5459;DHT22;2752;49.992;8.422;2023-06-22T10:04:50;30.30;1.00
5459;DHT22;2752;49.992;8.422;2023-06-22T10:07:18;30.50;1.00
5459;DHT22;2752;49.992;8.422;2023-06-22T10:09:44;30.40;1.00
5459;DHT22;2752;49.992;8.422;2023-06-22T10:12:11;30.50;1.00
5459;DHT22;2752;49.992;8.422;2023-06-22T10:14:38;30.50;1.00
5459;DHT22;2752;49.992;8.422;2023-06-22T10:17:05;30.40;1.00
5459;DHT22;2752;49.992;8.422;2023-06-22T10:19:33;30.50;1.00
5459;DHT22;2752;49.992;8.422;2023-06-22T10:22:02;30.70;1.00
5459;DHT22;2752;49.992;8.422;2023-06-22T10:24:30;30.90;1.00
5459;DHT22;2752;49.992;8.422;2023-06-22T10:26:57;31.20;1.00
5459;DHT22;2752;49.992;8.422;2023-06-22T10:29:23;31.30;1.00
5459;DHT22;2752;49.992;8.422;2023-06-22T10:31:50;31.40;1.00
5459;DHT22;2752;49.992;8.422;2023-06-22T10:34:17;31.60;1.00
5459;DHT22;2752;49.992;8.422;2023-06-22T10:36:43;31.80;1.00
5459;DHT22;2752;49.992;8.422;2023-06-22T10:39:12;31.80;1.00
5459;DHT22;2752;49.992;8.422;2023-06-22T10:41:40;31.90;1.00
5459;DHT22;2752;49.992;8.422;2023-06-22T10:44:07;31.90;1.00
5459;DHT22;2752;49.992;8.422;2023-06-22T10:46:33;32.20;1.00
5459;DHT22;2752;49.992;8.422;2023-06-22T10:49:00;32.10;1.00
5459;DHT22;2752;49.992;8.422;2023-06-22T10:51:27;32.20;1.00
5459;DHT22;2752;49.992;8.422;2023-06-22T10:53:54;32.20;1.00
5459;DHT22;2752;49.992;8.422;2023-06-22T10:56:20;31.90;1.00
5459;DHT22;2752;49.992;8.422;2023-06-22T10:58:48;32.10;1.00
5459;DHT22;2752;49.992;8.422;2023-06-22T11:01:15;31.90;1.00
5459;DHT22;2752;49.992;8.422;2023-06-22T11:03:42;32.00;1.00
5459;DHT22;2752;49.992;8.422;2023-06-22T11:06:09;32.20;1.00
5459;DHT22;2752;49.992;8.422;2023-06-22T11:08:35;32.30;1.00
5459;DHT22;2752;49.992;8.422;2023-06-22T11:11:02;32.30;1.00
5459;DHT22;2752;49.992;8.422;2023-06-22T11:13:28;32.60;1.00
5459;DHT22;2752;49.992;8.422;2023-06-22T11:15:56;32.50;1.00
5459;DHT22;2752;49.992;8.422;2023-06-22T11:18:23;32.40;1.00
5459;DHT22;2752;49.992;8.422;2023-06-22T11:20:50;32.50;1.00
5459;DHT22;2752;49.992;8.422;2023-06-22T11:23:16;32.50;1.00
5459;DHT22;2752;49.992;8.422;2023-06-22T11:25:43;32.80;1.00
5459;DHT22;2752;49.992;8.422;2023-06-22T11:28:09;32.70;1.00
5459;DHT22;2752;49.992;8.422;2023-06-22T11:30:36;32.30;1.00
5459;DHT22;2752;49.992;8.422;2023-06-22T11:33:04;32.20;1.00
5459;DHT22;2752;49.992;8.422;2023-06-22T11:35:31;32.00;1.00
5459;DHT22;2752;49.992;8.422;2023-06-22T11:37:57;32.20;1.00
5459;DHT22;2752;49.992;8.422;2023-06-22T11:40:24;32.40;1.00
5459;DHT22;2752;49.992;8.422;2023-06-22T11:42:51;32.40;1.00
5459;DHT22;2752;49.992;8.422;2023-06-22T11:45:17;32.50;1.00
5459;DHT22;2752;49.992;8.422;2023-06-22T11:47:45;32.70;1.00
5459;DHT22;2752;49.992;8.422;2023-06-22T11:50:13;32.90;1.00
5459;DHT22;2752;49.992;8.422;2023-06-22T11:52:40;33.00;1.00
5459;DHT22;2752;49.992;8.422;2023-06-22T11:55:07;33.10;1.00
5459;DHT22;2752;49.992;8.422;2023-06-22T11:57:35;33.30;1.00
5459;DHT22;2752;49.992;8.422;2023-06-22T12:00:02;33.50;1.00
5459;DHT22;2752;49.992;8.422;2023-06-22T12:02:32;33.60;1.00
5459;DHT22;2752;49.992;8.422;2023-06-22T12:04:59;33.50;1.00
5459;DHT22;2752;49.992;8.422;2023-06-22T12:07:27;33.40;1.00
5459;DHT22;2752;49.992;8.422;2023-06-22T12:09:53;33.50;1.00
5459;DHT22;2752;49.992;8.422;2023-06-22T12:12:20;33.60;1.00
5459;DHT22;2752;49.992;8.422;2023-06-22T12:14:46;33.80;1.00
5459;DHT22;2752;49.992;8.422;2023-06-22T12:17:13;33.90;1.00
5459;DHT22;2752;49.992;8.422;2023-06-22T12:19:40;33.90;1.00
5459;DHT22;2752;49.992;8.422;2023-06-22T12:22:06;33.80;1.00
5459;DHT22;2752;49.992;8.422;2023-06-22T12:24:34;34.00;1.00
5459;DHT22;2752;49.992;8.422;2023-06-22T12:27:01;34.20;1.00
5459;DHT22;2752;49.992;8.422;2023-06-22T12:29:28;34.10;1.00
5459;DHT22;2752;49.992;8.422;2023-06-22T12:31:55;34.00;1.00
5459;DHT22;2752;49.992;8.422;2023-06-22T12:34:22;34.10;1.00
5459;DHT22;2752;49.992;8.422;2023-06-22T12:36:49;34.20;1.00
5459;DHT22;2752;49.992;8.422;2023-06-22T12:39:15;34.00;1.00
5459;DHT22;2752;49.992;8.422;2023-06-22T12:41:44;33.90;1.00
5459;DHT22;2752;49.992;8.422;2023-06-22T12:44:15;33.60;1.00
5459;DHT22;2752;49.992;8.422;2023-06-22T12:46:43;33.40;1.00
5459;DHT22;2752;49.992;8.422;2023-06-22T12:49:11;33.30;1.00
5459;DHT22;2752;49.992;8.422;2023-06-22T12:51:39;33.40;1.00
5459;DHT22;2752;49.992;8.422;2023-06-22T12:54:07;33.40;1.00
5459;DHT22;2752;49.992;8.422;2023-06-22T12:56:34;33.50;1.00
5459;DHT22;2752;49.992;8.422;2023-06-22T12:59:03;33.60;1.00
5459;DHT22;2752;49.992;8.422;2023-06-22T13:01:30;33.80;1.00
5459;DHT22;2752;49.992;8.422;2023-06-22T13:03:57;33.90;1.00
5459;DHT22;2752;49.992;8.422;2023-06-22T13:06:24;34.00;1.00
5459;DHT22;2752;49.992;8.422;2023-06-22T13:08:51;34.10;1.00
5459;DHT22;2752;49.992;8.422;2023-06-22T13:11:17;34.20;1.00
5459;DHT22;2752;49.992;8.422;2023-06-22T13:13:45;34.50;1.00
5459;DHT22;2752;49.992;8.422;2023-06-22T13:16:13;34.50;1.00
5459;DHT22;2752;49.992;8.422;2023-06-22T13:18:40;34.90;1.00
5459;DHT22;2752;49.992;8.422;2023-06-22T13:21:06;35.00;1.00
5459;DHT22;2752;49.992;8.422;2023-06-22T13:23:33;35.20;1.00
5459;DHT22;2752;49.992;8.422;2023-06-22T13:26:00;35.10;1.00
5459;DHT22;2752;49.992;8.422;2023-06-22T13:28:28;35.00;1.00
5459;DHT22;2752;49.992;8.422;2023-06-22T13:30:55;34.70;1.00
5459;DHT22;2752;49.992;8.422;2023-06-22T13:33:23;34.30;1.00
5459;DHT22;2752;49.992;8.422;2023-06-22T13:35:50;34.10;1.00
5459;DHT22;2752;49.992;8.422;2023-06-22T13:38:16;34.20;1.00
5459;DHT22;2752;49.992;8.422;2023-06-22T13:40:43;34.50;1.00
5459;DHT22;2752;49.992;8.422;2023-06-22T13:43:10;34.60;1.00
5459;DHT22;2752;49.992;8.422;2023-06-22T13:45:36;35.10;1.00
5459;DHT22;2752;49.992;8.422;2023-06-22T13:48:03;35.50;1.00
5459;DHT22;2752;49.992;8.422;2023-06-22T13:50:32;35.50;1.00
5459;DHT22;2752;49.992;8.422;2023-06-22T13:52:58;35.80;1.00
5459;DHT22;2752;49.992;8.422;2023-06-22T13:55:25;36.00;1.00
5459;DHT22;2752;49.992;8.422;2023-06-22T13:57:52;36.20;1.00
5459;DHT22;2752;49.992;8.422;2023-06-22T14:00:19;36.10;1.00
5459;DHT22;2752;49.992;8.422;2023-06-22T14:02:45;36.00;1.00
5459;DHT22;2752;49.992;8.422;2023-06-22T14:05:12;35.90;1.00
5459;DHT22;2752;49.992;8.422;2023-06-22T14:07:40;35.60;1.00
5459;DHT22;2752;49.992;8.422;2023-06-22T14:10:07;35.50;1.00
5459;DHT22;2752;49.992;8.422;2023-06-22T14:12:34;35.40;1.00
5459;DHT22;2752;49.992;8.422;2023-06-22T14:15:01;35.40;1.00
5459;DHT22;2752;49.992;8.422;2023-06-22T14:17:27;35.30;1.00
5459;DHT22;2752;49.992;8.422;2023-06-22T14:19:54;35.20;1.00
5459;DHT22;2752;49.992;8.422;2023-06-22T14:22:21;35.10;1.00
5459;DHT22;2752;49.992;8.422;2023-06-22T14:24:49;34.90;1.00
5459;DHT22;2752;49.992;8.422;2023-06-22T14:27:17;34.50;1.00
5459;DHT22;2752;49.992;8.422;2023-06-22T14:29:43;34.30;1.00
5459;DHT22;2752;49.992;8.422;2023-06-22T14:32:11;34.10;1.00
5459;DHT22;2752;49.992;8.422;2023-06-22T14:34:37;33.90;1.00
5459;DHT22;2752;49.992;8.422;2023-06-22T14:37:05;33.90;1.00
5459;DHT22;2752;49.992;8.422;2023-06-22T14:39:32;33.90;1.00
5459;DHT22;2752;49.992;8.422;2023-06-22T14:42:00;33.70;1.00
5459;DHT22;2752;49.992;8.422;2023-06-22T14:44:28;33.60;1.00
5459;DHT22;2752;49.992;8.422;2023-06-22T14:46:55;33.40;1.00
5459;DHT22;2752;49.992;8.422;2023-06-22T14:49:21;33.20;1.00
5459;DHT22;2752;49.992;8.422;2023-06-22T14:51:48;33.10;1.00
5459;DHT22;2752;49.992;8.422;2023-06-22T14:54:15;33.10;1.00
5459;DHT22;2752;49.992;8.422;2023-06-22T14:56:42;33.00;1.00
5459;DHT22;2752;49.992;8.422;2023-06-22T14:59:10;32.80;1.00
5459;DHT22;2752;49.992;8.422;2023-06-22T15:01:37;32.60;1.00
5459;DHT22;2752;49.992;8.422;2023-06-22T15:04:04;32.40;1.00
5459;DHT22;2752;49.992;8.422;2023-06-22T15:06:31;32.20;1.00
5459;DHT22;2752;49.992;8.422;2023-06-22T15:08:57;32.00;1.00
5459;DHT22;2752;49.992;8.422;2023-06-22T15:11:24;31.90;1.00
5459;DHT22;2752;49.992;8.422;2023-06-22T15:13:51;31.80;1.00
5459;DHT22;2752;49.992;8.422;2023-06-22T15:16:18;31.50;1.00
5459;DHT22;2752;49.992;8.422;2023-06-22T15:18:45;31.30;1.00
5459;DHT22;2752;49.992;8.422;2023-06-22T15:21:13;31.10;1.00
5459;DHT22;2752;49.992;8.422;2023-06-22T15:23:40;31.10;1.00
5459;DHT22;2752;49.992;8.422;2023-06-22T15:26:06;31.10;1.00
5459;DHT22;2752;49.992;8.422;2023-06-22T15:28:33;31.30;1.00
5459;DHT22;2752;49.992;8.422;2023-06-22T15:31:02;31.40;1.00
5459;DHT22;2752;49.992;8.422;2023-06-22T15:33:30;31.50;1.00
5459;DHT22;2752;49.992;8.422;2023-06-22T15:35:58;31.60;1.00
5459;DHT22;2752;49.992;8.422;2023-06-22T15:38:29;31.70;1.00
5459;DHT22;2752;49.992;8.422;2023-06-22T15:40:56;31.70;1.00
5459;DHT22;2752;49.992;8.422;2023-06-22T15:43:22;31.80;1.00
5459;DHT22;2752;49.992;8.422;2023-06-22T15:45:49;31.70;1.00
5459;DHT22;2752;49.992;8.422;2023-06-22T15:48:15;31.70;1.00
5459;DHT22;2752;49.992;8.422;2023-06-22T15:50:44;31.60;1.00
5459;DHT22;2752;49.992;8.422;2023-06-22T15:53:10;31.60;1.00
5459;DHT22;2752;49.992;8.422;2023-06-22T15:55:37;31.50;1.00
5459;DHT22;2752;49.992;8.422;2023-06-22T15:58:04;31.40;1.00
5459;DHT22;2752;49.992;8.422;2023-06-22T16:00:30;31.40;1.00
5459;DHT22;2752;49.992;8.422;2023-06-22T16:02:57;31.30;1.00
5459;DHT22;2752;49.992;8.422;2023-06-22T16:05:24;30.60;1.00
5459;DHT22;2752;49.992;8.422;2023-06-22T20:32:51;22.60;1.00
5459;DHT22;2752;49.992;8.422;2023-06-22T20:35:20;22.70;1.00
5459;DHT22;2752;49.992;8.422;2023-06-22T20:37:47;22.70;1.00
5459;DHT22;2752;49.992;8.422;2023-06-22T20:40:14;22.60;1.00